createdAt,value
2023-02-24T00:01:25.350Z,19.9
2023-02-24T00:07:20.151Z,19.9
2023-02-24T00:13:13.855Z,19.9
2023-02-24T00:19:07.170Z,19.9
2023-02-24T00:25:00.409Z,19.9
2023-02-24T00:30:54.218Z,19.9
2023-02-24T00:36:48.784Z,19.9
2023-02-24T00:42:42.521Z,19.9
2023-02-24T00:48:35.945Z,19.9
2023-02-24T00:54:29.635Z,19.9
2023-02-24T01:00:21.911Z,19.9
2023-02-24T01:06:15.155Z,19.9
2023-02-24T01:12:09.027Z,19.9
2023-02-24T01:18:02.107Z,19.9
2023-02-24T01:23:55.013Z,19.9
2023-02-24T01:29:47.495Z,19.9
2023-02-24T01:35:30.981Z,19.9
2023-02-24T01:41:23.530Z,19.9
2023-02-24T01:47:16.002Z,19.9
2023-02-24T01:53:09.511Z,19.8
2023-02-24T01:59:02.356Z,19.9
2023-02-24T02:04:55.331Z,19.9
2023-02-24T02:10:47.813Z,19.9
2023-02-24T02:16:41.991Z,19.9
2023-02-24T02:22:34.835Z,19.8
2023-02-24T02:28:27.892Z,19.8
2023-02-24T02:34:22.999Z,19.9
2023-02-24T02:40:15.830Z,19.9
2023-02-24T02:46:09.405Z,19.8
2023-02-24T02:52:02.576Z,19.8
2023-02-24T02:57:54.881Z,19.9
2023-02-24T03:03:49.110Z,19.9
2023-02-24T03:09:42.179Z,19.9
2023-02-24T03:15:19.771Z,19.8
2023-02-24T03:21:12.919Z,19.8
2023-02-24T03:27:05.880Z,19.9
2023-02-24T03:33:00.952Z,19.8
2023-02-24T03:38:53.333Z,19.8
2023-02-24T03:44:45.388Z,19.9
2023-02-24T03:50:22.397Z,19.9
2023-02-24T03:56:15.459Z,19.9
2023-02-24T04:02:09.065Z,19.8
2023-02-24T04:07:45.582Z,19.8
2023-02-24T04:13:23.639Z,19.9
2023-02-24T04:19:17.501Z,19.8
2023-02-24T04:24:38.814Z,19.9
2023-02-24T04:30:33.965Z,19.9
2023-02-24T04:36:13.035Z,19.8
2023-02-24T04:42:06.134Z,19.9
2023-02-24T04:47:59.539Z,19.8
2023-02-24T04:53:52.093Z,19.9
2023-02-24T04:59:44.964Z,19.9
2023-02-24T05:05:37.946Z,19.9
2023-02-24T05:11:30.482Z,19.9
2023-02-24T05:17:23.850Z,19.9
2023-02-24T05:22:46.453Z,20
2023-02-24T05:28:24.932Z,20.1
2023-02-24T05:33:48.205Z,20.1
2023-02-24T05:39:13.006Z,20.3
2023-02-24T05:44:51.259Z,20.4
2023-02-24T05:50:44.341Z,20.4
2023-02-24T05:56:37.854Z,20.3
2023-02-24T06:02:30.796Z,20.3
2023-02-24T06:08:22.921Z,20.3
2023-02-24T06:14:17.180Z,20.2
2023-02-24T06:20:09.636Z,20.1
2023-02-24T06:26:01.555Z,20.1
2023-02-24T06:31:24.268Z,20.1
2023-02-24T06:37:02.858Z,20
2023-02-24T06:42:54.532Z,20
2023-02-24T06:48:48.881Z,20
2023-02-24T06:54:26.439Z,20
2023-02-24T07:00:19.601Z,19.9
2023-02-24T07:06:12.406Z,20.2
2023-02-24T07:12:05.356Z,20.4
2023-02-24T07:17:57.535Z,20.4
2023-02-24T07:23:51.588Z,20.4
2023-02-24T07:29:43.933Z,20.4
2023-02-24T07:35:38.984Z,20.4
2023-02-24T07:41:32.049Z,20.3
2023-02-24T07:47:09.131Z,20.2
2023-02-24T07:53:04.488Z,20.1
2023-02-24T07:58:58.157Z,20.1
2023-02-24T08:04:51.590Z,20
2023-02-24T08:10:45.280Z,20
2023-02-24T08:16:22.784Z,19.9
2023-02-24T08:21:29.405Z,19.9
2023-02-24T08:27:06.770Z,19.9
2023-02-24T08:33:00.252Z,19.9
2023-02-24T08:38:37.397Z,19.8
2023-02-24T08:44:30.757Z,19.8
2023-02-24T08:50:24.239Z,19.8
2023-02-24T08:56:18.254Z,19.8
2023-02-24T09:02:21.335Z,19.8
2023-02-24T09:08:18.083Z,19.8
2023-02-24T09:14:18.035Z,19.8
2023-02-24T09:20:18.168Z,22.1
2023-02-24T09:26:18.458Z,23.6
2023-02-24T09:31:57.008Z,22.3
2023-02-24T09:37:49.374Z,27.1
2023-02-24T09:43:31.631Z,28.7
2023-02-24T09:49:24.959Z,29.1
2023-02-24T09:55:56.588Z,30.1
2023-02-24T10:02:01.678Z,29.8
2023-02-24T10:08:01.175Z,29.6
2023-02-24T10:13:53.883Z,29.6
2023-02-24T10:19:55.868Z,29.8
2023-02-24T10:25:54.518Z,31.4
2023-02-24T10:32:05.556Z,33.6
2023-02-24T10:38:06.083Z,34.9
2023-02-24T10:43:59.655Z,36.6
2023-02-24T10:50:41.379Z,37.8
2023-02-24T10:56:37.502Z,38.3
2023-02-24T11:02:46.060Z,39.6
2023-02-24T11:08:51.712Z,39
2023-02-24T11:14:50.724Z,39
2023-02-24T11:20:52.540Z,39.9
2023-02-24T11:26:45.428Z,39.7
2023-02-24T11:32:31.910Z,39.2
2023-02-24T11:38:09.536Z,38.7
2023-02-24T11:44:19.805Z,38.3
2023-02-24T11:50:13.199Z,37.8
2023-02-24T11:56:05.152Z,37.4
2023-02-24T12:01:58.196Z,36.9
2023-02-24T12:07:55.075Z,36.4
2023-02-24T12:13:57.626Z,36.1
2023-02-24T12:19:52.672Z,35.8
2023-02-24T12:25:48.366Z,34.1
2023-02-24T12:31:45.012Z,32.5
2023-02-24T12:37:39.058Z,31.3
2023-02-24T12:43:33.568Z,30.3
2023-02-24T12:49:11.273Z,29.4
2023-02-24T12:54:33.028Z,28.8
2023-02-24T13:00:14.486Z,28.1
2023-02-24T13:05:53.928Z,27.6
2023-02-24T13:11:33.008Z,27.1
2023-02-24T13:16:55.744Z,26.7
2023-02-24T13:22:48.983Z,31.2
2023-02-24T13:28:45.051Z,32.5
2023-02-24T13:34:23.718Z,31.3
2023-02-24T13:40:17.502Z,30.2
2023-02-24T13:45:54.955Z,29.3
2023-02-24T13:51:49.830Z,28.5
2023-02-24T14:03:22.950Z,27.3
2023-02-24T14:09:17.709Z,26.9
2023-02-24T14:14:53.978Z,26.6
2023-02-24T14:20:46.758Z,26.2
2023-02-24T14:26:40.502Z,31.4
2023-02-24T14:32:34.244Z,30
2023-02-24T14:38:27.392Z,29.7
2023-02-24T14:44:04.830Z,27.7
2023-02-24T14:49:41.692Z,27.2
2023-02-24T14:55:18.524Z,26.9
2023-02-24T15:01:13.264Z,26.7
2023-02-24T15:07:06.416Z,26.6
2023-02-24T15:13:00.692Z,25.9
2023-02-24T15:18:54.824Z,24.7
2023-02-24T15:24:51.545Z,24.3
2023-02-24T15:30:57.027Z,24.1
2023-02-24T15:36:51.069Z,23.8
2023-02-24T15:42:45.800Z,23.6
2023-02-24T15:48:38.869Z,23.4
2023-02-24T15:54:33.842Z,23.1
2023-02-24T16:00:26.322Z,22.6
2023-02-24T16:06:20.330Z,22.3
2023-02-24T16:12:12.792Z,22
2023-02-24T16:18:05.869Z,21.8
2023-02-24T16:23:58.608Z,21.6
2023-02-24T16:29:52.264Z,21.4
2023-02-24T16:36:04.857Z,21.3
2023-02-24T16:41:57.967Z,21.1
2023-02-24T16:47:52.466Z,21
2023-02-24T16:53:44.026Z,20.9
2023-02-24T16:59:23.555Z,20.8
2023-02-24T17:05:02.551Z,20.7
2023-02-24T17:10:55.144Z,20.6
2023-02-24T17:16:49.578Z,20.6
2023-02-24T17:22:26.447Z,20.5
2023-02-24T17:28:22.687Z,20.4
2023-02-24T17:34:01.412Z,20.4
2023-02-24T17:39:54.435Z,20.3
2023-02-24T17:45:47.237Z,20.3
2023-02-24T17:51:45.550Z,20.3
2023-02-24T17:57:57.386Z,20.2
2023-02-24T18:03:53.293Z,20.1
2023-02-24T18:09:47.335Z,20.1
2023-02-24T18:15:40.324Z,19.9
2023-02-24T18:21:34.501Z,19.9
2023-02-24T18:27:14.228Z,19.8
2023-02-24T18:32:55.658Z,19.8
2023-02-24T18:38:51.044Z,19.7
2023-02-24T18:44:46.605Z,19.7
2023-02-24T18:50:41.845Z,19.6
2023-02-24T18:56:39.832Z,19.6
2023-02-24T19:02:19.159Z,19.6
2023-02-24T19:08:24.046Z,19.6
2023-02-24T19:14:03.433Z,19.5
2023-02-24T19:19:42.972Z,19.5
2023-02-24T19:25:22.242Z,19.4
2023-02-24T19:31:17.805Z,19.4
2023-02-24T19:36:59.823Z,19.4
2023-02-24T19:42:56.030Z,19.4
2023-02-24T19:48:52.368Z,19.4
2023-02-24T19:54:47.300Z,19.4
2023-02-24T20:00:26.921Z,19.4
2023-02-24T20:06:22.532Z,19.4
2023-02-24T20:12:02.223Z,19.4
2023-02-24T20:17:57.803Z,19.4
2023-02-24T20:23:52.450Z,19.4
2023-02-24T20:29:32.608Z,19.4
2023-02-24T20:35:14.105Z,19.4
2023-02-24T20:41:09.690Z,19.4
2023-02-24T20:47:05.904Z,19.4
2023-02-24T20:53:00.436Z,19.4
2023-02-24T20:58:46.839Z,19.4
2023-02-24T21:04:35.952Z,19.4
2023-02-24T21:10:42.487Z,19.4
2023-02-24T21:16:21.279Z,19.4
2023-02-24T21:22:02.208Z,19.3
2023-02-24T21:27:56.866Z,19.3
2023-02-24T21:33:36.359Z,19.3
2023-02-24T21:39:30.148Z,19.3
2023-02-24T21:45:22.432Z,19.2
2023-02-24T21:51:16.880Z,19.2
2023-02-24T21:57:09.814Z,19.2
2023-02-24T22:02:48.031Z,19.2
2023-02-24T22:08:43.365Z,19.1
2023-02-24T22:14:36.041Z,19.1
2023-02-24T22:20:31.209Z,19.1
2023-02-24T22:26:24.540Z,19.1
2023-02-24T22:32:06.114Z,19.1
2023-02-24T22:37:44.384Z,19.1
2023-02-24T22:43:22.587Z,19.1
2023-02-24T22:49:16.350Z,19.1
2023-02-24T22:54:53.299Z,19.1
2023-02-24T23:00:45.877Z,19.1
2023-02-24T23:06:23.476Z,19.1
2023-02-24T23:12:16.736Z,19.1
2023-02-24T23:18:08.576Z,19.1
2023-02-24T23:23:46.250Z,19.1
2023-02-24T23:29:38.519Z,19.1
2023-02-24T23:35:01.462Z,19.1
2023-02-24T23:41:06.595Z,19.1
2023-02-24T23:47:01.452Z,19.1
2023-02-24T23:53:27.102Z,19.1
2023-02-24T23:59:20.028Z,19.1
